Time;durP1;ratioP1;P1;durP2;ratioP2;P2;SDS_P1;SDS_P2;PMS_P1;PMS_P2;Temp;Humidity;BMP_temperature;BMP_pressure;BME280_temperature;BME280_humidity;BME280_pressure;Samples;Min_cycle;Max_cycle;Signal;HPM_P1;HPM_P2
2023/08/29 00:00:22;;;;;;;2.65;1.88;;;;;;;;;;6289300;22;20008;-93
2023/08/29 00:02:48;;;;;;;4.10;1.83;;;;;;;;;;6287103;22;20082;-92
2023/08/29 00:05:14;;;;;;;4.50;2.15;;;;;;;;;;6289219;22;19999;-96
2023/08/29 00:07:42;;;;;;;4.35;1.95;;;;;;;;;;6281657;22;20027;-95
2023/08/29 00:10:08;;;;;;;4.30;2.00;;;;;;;;;;6284250;22;20073;-94
2023/08/29 00:12:38;;;;;;;3.90;2.17;;;;;;;;;;6278924;22;20053;-95
2023/08/29 00:15:08;;;;;;;4.93;2.20;;;;;;;;;;6286132;22;20000;-94
2023/08/29 00:17:34;;;;;;;10.50;2.13;;;;;;;;;;6287081;22;19996;-95
2023/08/29 00:20:10;;;;;;;5.32;2.25;;;;;;;;;;6283031;22;20094;-94
2023/08/29 00:22:36;;;;;;;3.05;2.33;;;;;;;;;;6288193;22;20034;-96
2023/08/29 00:25:02;;;;;;;2.53;1.92;;;;;;;;;;6286036;22;19999;-94
2023/08/29 00:27:33;;;;;;;2.92;2.20;;;;;;;;;;6286801;22;20400;-93
2023/08/29 00:30:01;;;;;;;3.58;2.25;;;;;;;;;;6282121;22;20020;-94
2023/08/29 00:32:35;;;;;;;2.50;2.03;;;;;;;;;;6284757;22;20017;-94
2023/08/29 00:35:01;;;;;;;2.65;2.15;;;;;;;;;;6282692;22;20091;-92
2023/08/29 00:37:31;;;;;;;5.43;2.40;;;;;;;;;;6287770;22;20031;-95
2023/08/29 00:39:57;;;;;;;4.20;2.20;;;;;;;;;;6282108;22;20050;-94
2023/08/29 00:42:23;;;;;;;2.45;2.10;;;;;;;;;;6282402;22;20038;-96
2023/08/29 00:44:49;;;;;;;2.33;2.10;;;;;;;;;;6276000;22;20082;-95
2023/08/29 00:47:15;;;;;;;4.85;2.30;;;;;;;;;;6275075;22;20065;-93
2023/08/29 00:49:41;;;;;;;4.68;2.60;;;;;;;;;;6274304;22;20004;-93
2023/08/29 00:52:07;;;;;;;6.13;2.50;;;;;;;;;;6274282;22;20094;-94
2023/08/29 00:54:34;;;;;;;6.13;2.40;;;;;;;;;;6274567;22;20010;-93
2023/08/29 00:57:00;;;;;;;4.07;2.55;;;;;;;;;;6274652;22;20014;-92
2023/08/29 00:59:26;;;;;;;9.65;2.72;;;;;;;;;;6276086;22;19996;-92
2023/08/29 01:01:52;;;;;;;4.00;2.35;;;;;;;;;;6275268;22;20057;-92
2023/08/29 01:04:19;;;;;;;2.53;2.17;;;;;;;;;;6274970;22;20004;-92
2023/08/29 01:06:45;;;;;;;4.82;2.55;;;;;;;;;;6275098;22;20061;-89
2023/08/29 01:09:11;;;;;;;4.05;2.25;;;;;;;;;;6276223;22;19996;-90
2023/08/29 01:11:56;;;;;;;4.15;2.65;;;;;;;;;;6275630;22;20014;-90
2023/08/29 01:14:35;;;;;;;3.97;2.53;;;;;;;;;;6276480;22;20073;-89
2023/08/29 01:17:20;;;;;;;6.63;2.83;;;;;;;;;;6274863;22;19996;-89
2023/08/29 01:19:48;;;;;;;9.85;2.80;;;;;;;;;;6275272;22;20004;-89
2023/08/29 01:22:23;;;;;;;3.17;2.42;;;;;;;;;;6276864;22;20080;-88
2023/08/29 01:25:08;;;;;;;4.93;2.83;;;;;;;;;;6275289;22;20314;-88
2023/08/29 01:27:34;;;;;;;3.58;2.83;;;;;;;;;;6276313;22;20003;-88
2023/08/29 01:30:01;;;;;;;4.93;2.80;;;;;;;;;;6274024;22;20003;-87
2023/08/29 01:32:27;;;;;;;3.97;2.60;;;;;;;;;;6277378;22;20007;-86
2023/08/29 01:34:53;;;;;;;8.85;3.00;;;;;;;;;;6278003;22;20004;-87
2023/08/29 01:37:20;;;;;;;3.85;2.65;;;;;;;;;;6276591;22;20033;-87
2023/08/29 01:39:46;;;;;;;3.17;2.50;;;;;;;;;;6275284;22;20003;-87
2023/08/29 01:42:12;;;;;;;3.60;2.80;;;;;;;;;;6277100;22;20057;-87
2023/08/29 01:44:38;;;;;;;4.22;2.70;;;;;;;;;;6277371;22;20016;-87
2023/08/29 01:47:04;;;;;;;4.00;2.90;;;;;;;;;;6276552;22;20004;-86
2023/08/29 01:49:32;;;;;;;4.05;3.05;;;;;;;;;;6276899;22;20325;-86
2023/08/29 01:51:59;;;;;;;3.90;2.78;;;;;;;;;;6276741;22;20050;-87
2023/08/29 01:54:25;;;;;;;3.58;2.97;;;;;;;;;;6276327;22;20015;-87
2023/08/29 01:56:52;;;;;;;3.33;2.63;;;;;;;;;;6276346;22;20376;-86
2023/08/29 01:59:18;;;;;;;6.70;2.85;;;;;;;;;;6275999;22;20007;-87
2023/08/29 02:01:44;;;;;;;6.10;3.33;;;;;;;;;;6276203;22;20000;-86
2023/08/29 02:04:10;;;;;;;4.40;2.83;;;;;;;;;;6277700;22;20006;-86
2023/08/29 02:06:36;;;;;;;5.68;3.17;;;;;;;;;;6277636;22;20075;-87
2023/08/29 02:09:03;;;;;;;8.52;3.00;;;;;;;;;;6275810;22;20413;-86
2023/08/29 02:11:29;;;;;;;8.02;2.95;;;;;;;;;;6276098;22;20035;-87
2023/08/29 02:13:55;;;;;;;4.95;3.20;;;;;;;;;;6278241;22;20008;-87
2023/08/29 02:16:21;;;;;;;7.38;3.20;;;;;;;;;;6276201;22;20082;-87
2023/08/29 02:18:47;;;;;;;3.53;2.85;;;;;;;;;;6276599;22;20030;-87
2023/08/29 02:21:13;;;;;;;4.78;2.90;;;;;;;;;;6274618;22;20003;-87
2023/08/29 02:23:39;;;;;;;4.80;2.88;;;;;;;;;;6278528;22;20019;-88
2023/08/29 02:26:06;;;;;;;5.07;3.13;;;;;;;;;;6276853;22;20004;-88
2023/08/29 02:28:35;;;;;;;5.18;2.90;;;;;;;;;;6276619;22;20004;-87
2023/08/29 02:31:02;;;;;;;4.95;2.72;;;;;;;;;;6276543;22;20057;-87
2023/08/29 02:33:28;;;;;;;3.55;2.75;;;;;;;;;;6276978;22;20452;-88
2023/08/29 02:35:54;;;;;;;7.15;2.92;;;;;;;;;;6276427;22;20042;-87
2023/08/29 02:38:20;;;;;;;3.42;2.72;;;;;;;;;;6277936;22;20317;-87
2023/08/29 02:40:46;;;;;;;4.38;2.97;;;;;;;;;;6276309;22;20003;-87
2023/08/29 02:43:12;;;;;;;8.50;2.80;;;;;;;;;;6276251;22;20018;-87
2023/08/29 02:45:38;;;;;;;3.20;2.28;;;;;;;;;;6277136;22;20031;-87
2023/08/29 02:48:05;;;;;;;3.30;2.60;;;;;;;;;;6276252;22;20064;-87
2023/08/29 02:50:31;;;;;;;2.88;2.58;;;;;;;;;;6276129;22;20329;-87
2023/08/29 02:52:57;;;;;;;3.38;2.63;;;;;;;;;;6276245;22;20554;-86
2023/08/29 02:55:23;;;;;;;5.65;2.78;;;;;;;;;;6276148;22;20004;-87
2023/08/29 02:57:49;;;;;;;5.78;2.53;;;;;;;;;;6275970;22;20390;-87
2023/08/29 03:00:16;;;;;;;4.05;2.97;;;;;;;;;;6275810;22;20008;-87
2023/08/29 03:02:42;;;;;;;2.90;2.25;;;;;;;;;;6277945;22;20004;-88
2023/08/29 03:05:08;;;;;;;3.47;2.45;;;;;;;;;;6276971;22;20015;-87
2023/08/29 03:07:34;;;;;;;2.75;2.25;;;;;;;;;;6275915;22;20030;-87
2023/08/29 03:10:00;;;;;;;4.72;2.38;;;;;;;;;;6277205;22;20062;-86
2023/08/29 03:12:26;;;;;;;3.17;2.38;;;;;;;;;;6275872;22;20099;-87
2023/08/29 03:14:56;;;;;;;2.85;2.35;;;;;;;;;;6276529;22;20018;-87
2023/08/29 03:17:22;;;;;;;5.07;2.40;;;;;;;;;;6276112;22;20008;-87
2023/08/29 03:19:48;;;;;;;2.88;2.58;;;;;;;;;;6276011;22;20261;-87
2023/08/29 03:22:14;;;;;;;3.78;2.97;;;;;;;;;;6276380;22;20008;-88
2023/08/29 03:24:43;;;;;;;3.08;2.25;;;;;;;;;;6276089;22;20006;-87
2023/08/29 03:27:10;;;;;;;5.70;2.23;;;;;;;;;;6277715;22;19996;-87
2023/08/29 03:29:35;;;;;;;3.00;2.40;;;;;;;;;;6277447;22;20025;-87
2023/08/29 03:32:01;;;;;;;3.88;2.20;;;;;;;;;;6275597;22;20004;-87
2023/08/29 03:34:27;;;;;;;3.30;2.60;;;;;;;;;;6275743;22;20022;-86
2023/08/29 03:36:53;;;;;;;2.90;2.60;;;;;;;;;;6276041;22;20004;-87
2023/08/29 03:39:20;;;;;;;4.07;2.40;;;;;;;;;;6275545;22;19996;-86
2023/08/29 03:41:46;;;;;;;8.20;3.03;;;;;;;;;;6275460;22;20008;-87
2023/08/29 03:44:12;;;;;;;3.63;2.60;;;;;;;;;;6275606;22;20012;-87
2023/08/29 03:46:38;;;;;;;5.18;2.22;;;;;;;;;;6277095;22;20071;-87
2023/08/29 03:49:04;;;;;;;8.55;2.78;;;;;;;;;;6276623;22;20029;-86
2023/08/29 03:51:30;;;;;;;4.45;2.70;;;;;;;;;;6275070;22;20004;-87
2023/08/29 03:53:56;;;;;;;5.88;2.67;;;;;;;;;;6274875;22;20081;-86
2023/08/29 03:56:22;;;;;;;4.30;2.67;;;;;;;;;;6276889;22;20030;-87
2023/08/29 03:58:49;;;;;;;5.47;2.60;;;;;;;;;;6276222;22;20004;-87
2023/08/29 04:01:15;;;;;;;6.53;1.98;;;;;;;;;;6276023;22;20007;-87
2023/08/29 04:03:41;;;;;;;2.33;2.13;;;;;;;;;;6275541;22;20004;-87
2023/08/29 04:06:08;;;;;;;3.35;2.70;;;;;;;;;;6277475;22;20052;-87
2023/08/29 04:08:33;;;;;;;2.47;2.15;;;;;;;;;;6277160;22;20071;-87
2023/08/29 04:11:03;;;;;;;2.72;2.38;;;;;;;;;;6277024;22;20025;-86
2023/08/29 04:13:28;;;;;;;2.80;1.95;;;;;;;;;;6275452;22;20039;-87
2023/08/29 04:15:55;;;;;;;3.35;2.50;;;;;;;;;;6275549;22;20049;-87
2023/08/29 04:18:21;;;;;;;4.28;2.35;;;;;;;;;;6277224;22;20447;-87
2023/08/29 04:20:47;;;;;;;5.90;2.45;;;;;;;;;;6275310;22;20447;-87
2023/08/29 04:23:13;;;;;;;5.78;2.17;;;;;;;;;;6275302;22;20039;-87
2023/08/29 04:25:39;;;;;;;7.22;2.60;;;;;;;;;;6274854;22;20375;-86
2023/08/29 04:28:05;;;;;;;2.67;2.22;;;;;;;;;;6276755;22;19999;-86
2023/08/29 04:30:31;;;;;;;4.22;2.65;;;;;;;;;;6273441;22;20437;-85
2023/08/29 04:32:59;;;;;;;2.67;2.13;;;;;;;;;;6276218;22;20092;-86
2023/08/29 04:35:25;;;;;;;3.15;2.40;;;;;;;;;;6275369;22;20054;-85
2023/08/29 04:37:51;;;;;;;3.17;2.67;;;;;;;;;;6275035;22;20007;-86
2023/08/29 04:40:21;;;;;;;3.72;2.20;;;;;;;;;;6275413;22;20015;-86
2023/08/29 04:42:47;;;;;;;3.83;2.28;;;;;;;;;;6249278;22;20523;-87
2023/08/29 04:45:13;;;;;;;5.53;2.53;;;;;;;;;;6276193;22;20007;-87
2023/08/29 04:47:40;;;;;;;4.13;2.22;;;;;;;;;;6274716;22;20333;-86
2023/08/29 04:50:06;;;;;;;2.38;2.17;;;;;;;;;;6274530;22;20417;-87
2023/08/29 04:52:32;;;;;;;2.97;2.13;;;;;;;;;;6274715;22;20061;-87
2023/08/29 04:54:58;;;;;;;3.22;2.50;;;;;;;;;;6275044;22;20003;-86
2023/08/29 04:57:25;;;;;;;4.13;2.42;;;;;;;;;;6275204;22;20061;-87
2023/08/29 04:59:51;;;;;;;4.28;2.50;;;;;;;;;;6275156;22;20003;-87
2023/08/29 05:02:17;;;;;;;2.35;2.05;;;;;;;;;;6276616;22;20026;-86
2023/08/29 05:04:44;;;;;;;2.17;1.98;;;;;;;;;;6275181;22;20433;-86
2023/08/29 05:07:10;;;;;;;3.40;2.47;;;;;;;;;;6276356;22;19999;-86
2023/08/29 05:09:36;;;;;;;6.13;2.38;;;;;;;;;;6276488;22;20062;-85
2023/08/29 05:12:02;;;;;;;3.28;2.38;;;;;;;;;;6276591;22;20006;-86
2023/08/29 05:14:28;;;;;;;4.38;2.15;;;;;;;;;;6276458;22;20011;-86
2023/08/29 05:16:54;;;;;;;3.67;2.53;;;;;;;;;;6276991;22;20027;-85
2023/08/29 05:19:20;;;;;;;5.30;2.10;;;;;;;;;;6277089;22;20003;-87
2023/08/29 05:21:46;;;;;;;3.47;2.28;;;;;;;;;;6277085;22;20084;-87
2023/08/29 05:24:12;;;;;;;2.38;2.00;;;;;;;;;;6277215;22;20054;-87
2023/08/29 05:26:38;;;;;;;2.20;2.00;;;;;;;;;;6277240;22;20046;-87
2023/08/29 05:29:04;;;;;;;3.33;2.40;;;;;;;;;;6278036;22;20003;-88
2023/08/29 05:31:30;;;;;;;2.20;1.98;;;;;;;;;;6279234;22;20516;-88
2023/08/29 05:33:56;;;;;;;2.92;2.35;;;;;;;;;;6277674;22;20039;-88
2023/08/29 05:36:22;;;;;;;2.58;2.00;;;;;;;;;;6277559;22;20000;-88
2023/08/29 05:38:48;;;;;;;4.53;2.10;;;;;;;;;;6277790;22;20008;-88
2023/08/29 05:41:15;;;;;;;2.83;2.40;;;;;;;;;;6277299;22;20011;-88
2023/08/29 05:43:41;;;;;;;4.00;2.17;;;;;;;;;;6277381;22;20019;-87
2023/08/29 05:46:07;;;;;;;2.38;2.00;;;;;;;;;;6277074;22;20038;-87
2023/08/29 05:48:33;;;;;;;7.50;1.98;;;;;;;;;;6277090;22;20003;-87
2023/08/29 05:50:59;;;;;;;3.72;2.00;;;;;;;;;;6277533;22;20444;-88
2023/08/29 05:53:25;;;;;;;3.58;1.80;;;;;;;;;;6277288;22;20061;-88
2023/08/29 05:55:51;;;;;;;2.30;2.10;;;;;;;;;;6277515;22;20451;-88
2023/08/29 05:58:17;;;;;;;1.90;1.73;;;;;;;;;;6277519;22;19996;-88
2023/08/29 06:00:43;;;;;;;2.53;2.03;;;;;;;;;;6277532;22;20004;-88
2023/08/29 06:03:09;;;;;;;5.47;2.13;;;;;;;;;;6277304;22;20008;-89
2023/08/29 06:05:36;;;;;;;3.00;2.25;;;;;;;;;;6277405;22;20011;-89
2023/08/29 06:08:03;;;;;;;3.85;1.80;;;;;;;;;;6277449;22;20445;-88
2023/08/29 06:10:29;;;;;;;7.75;1.90;;;;;;;;;;6277841;22;20007;-90
2023/08/29 06:12:55;;;;;;;3.67;1.77;;;;;;;;;;6276967;22;20441;-89
2023/08/29 06:15:24;;;;;;;1.90;1.67;;;;;;;;;;6277622;22;19999;-89
2023/08/29 06:17:50;;;;;;;2.50;1.85;;;;;;;;;;6277720;22;20027;-89
2023/08/29 06:20:16;;;;;;;2.17;1.70;;;;;;;;;;6277428;22;19999;-87
2023/08/29 06:22:42;;;;;;;1.40;1.30;;;;;;;;;;6276687;22;20007;-87
2023/08/29 06:25:09;;;;;;;5.05;2.13;;;;;;;;;;6276656;22;20004;-87
2023/08/29 06:27:36;;;;;;;2.83;1.98;;;;;;;;;;6276880;22;20006;-87
2023/08/29 06:30:02;;;;;;;2.28;1.80;;;;;;;;;;6276841;22;20050;-87
2023/08/29 06:32:29;;;;;;;2.60;2.22;;;;;;;;;;6276382;22;20003;-86
2023/08/29 06:34:55;;;;;;;7.47;2.33;;;;;;;;;;6278307;22;20362;-87
2023/08/29 06:37:21;;;;;;;8.80;2.28;;;;;;;;;;6276697;22;20000;-87
2023/08/29 06:39:47;;;;;;;2.35;1.90;;;;;;;;;;6278180;22;20325;-88
2023/08/29 06:42:13;;;;;;;5.82;2.20;;;;;;;;;;6277105;22;20087;-88
2023/08/29 06:44:39;;;;;;;3.13;2.05;;;;;;;;;;6276546;22;20011;-87
2023/08/29 06:47:06;;;;;;;2.97;2.40;;;;;;;;;;6276685;22;20037;-87
2023/08/29 06:49:32;;;;;;;3.22;2.20;;;;;;;;;;6276592;22;20050;-87
2023/08/29 06:51:58;;;;;;;2.90;2.22;;;;;;;;;;6276544;22;20427;-86
2023/08/29 06:54:24;;;;;;;5.32;2.63;;;;;;;;;;6277610;22;20078;-86
2023/08/29 06:56:50;;;;;;;3.47;1.95;;;;;;;;;;6276346;22;20329;-86
2023/08/29 06:59:16;;;;;;;5.40;2.13;;;;;;;;;;6276321;22;19996;-87
2023/08/29 07:01:42;;;;;;;4.05;1.95;;;;;;;;;;6276300;22;20311;-87
2023/08/29 07:04:12;;;;;;;3.25;1.75;;;;;;;;;;6276319;22;20057;-87
2023/08/29 07:06:39;;;;;;;2.08;1.88;;;;;;;;;;6276558;22;20004;-88
2023/08/29 07:09:05;;;;;;;5.03;1.90;;;;;;;;;;6276526;22;20004;-88
2023/08/29 07:11:31;;;;;;;1.90;1.50;;;;;;;;;;6278125;22;20417;-88
2023/08/29 07:13:57;;;;;;;1.95;1.40;;;;;;;;;;6276457;22;20022;-87
2023/08/29 07:16:23;;;;;;;2.55;1.55;;;;;;;;;;6276374;22;20337;-88
2023/08/29 07:18:49;;;;;;;1.75;1.60;;;;;;;;;;6276503;22;20061;-88
2023/08/29 07:21:16;;;;;;;3.10;1.80;;;;;;;;;;6276564;22;20000;-87
2023/08/29 07:23:42;;;;;;;3.40;1.95;;;;;;;;;;6277898;22;20429;-88
2023/08/29 07:26:08;;;;;;;5.88;1.60;;;;;;;;;;6277983;22;20008;-88
2023/08/29 07:28:35;;;;;;;1.83;1.67;;;;;;;;;;6276208;22;20093;-88
2023/08/29 07:31:01;;;;;;;2.70;1.77;;;;;;;;;;6277722;22;20482;-88
2023/08/29 07:33:27;;;;;;;3.22;1.80;;;;;;;;;;6276399;22;20004;-87
2023/08/29 07:35:53;;;;;;;2.88;1.60;;;;;;;;;;6276529;22;20004;-87
2023/08/29 07:38:19;;;;;;;2.10;1.30;;;;;;;;;;6277843;22;20004;-88
2023/08/29 07:40:46;;;;;;;2.28;1.60;;;;;;;;;;6276427;22;20008;-89
2023/08/29 07:43:12;;;;;;;2.20;1.38;;;;;;;;;;6277782;22;20083;-88
2023/08/29 07:45:38;;;;;;;1.90;1.33;;;;;;;;;;6276485;22;20057;-89
2023/08/29 07:48:04;;;;;;;1.63;1.45;;;;;;;;;;6276363;22;20364;-88
2023/08/29 07:50:30;;;;;;;1.60;1.50;;;;;;;;;;6277391;22;20031;-89
2023/08/29 07:52:57;;;;;;;1.67;1.50;;;;;;;;;;6276269;22;20329;-89
2023/08/29 07:55:23;;;;;;;3.72;1.65;;;;;;;;;;6277748;22;20003;-88
2023/08/29 07:57:49;;;;;;;2.05;1.70;;;;;;;;;;6275901;22;20007;-87
2023/08/29 08:00:16;;;;;;;7.25;2.35;;;;;;;;;;6275858;22;20030;-88
2023/08/29 08:02:42;;;;;;;2.35;1.80;;;;;;;;;;6276459;22;20011;-87
2023/08/29 08:05:10;;;;;;;1.88;1.50;;;;;;;;;;6275773;22;20011;-87
2023/08/29 08:07:36;;;;;;;2.05;1.85;;;;;;;;;;6275923;22;20087;-88
2023/08/29 08:10:04;;;;;;;1.90;1.70;;;;;;;;;;6275624;22;20003;-87
2023/08/29 08:12:31;;;;;;;2.40;1.95;;;;;;;;;;6276171;22;20061;-88
2023/08/29 08:14:57;;;;;;;2.30;1.80;;;;;;;;;;6277801;22;20011;-88
2023/08/29 08:17:23;;;;;;;2.85;1.70;;;;;;;;;;6275847;22;20053;-88
2023/08/29 08:19:50;;;;;;;2.15;1.58;;;;;;;;;;6275907;22;20086;-89
2023/08/29 08:22:16;;;;;;;1.88;1.70;;;;;;;;;;6275585;22;20050;-88
2023/08/29 08:24:42;;;;;;;2.13;1.83;;;;;;;;;;6276079;22;20010;-89
2023/08/29 08:27:08;;;;;;;2.42;1.65;;;;;;;;;;6277890;22;20050;-90
2023/08/29 08:29:35;;;;;;;3.40;1.77;;;;;;;;;;6276387;22;20008;-89
2023/08/29 08:32:01;;;;;;;1.50;1.40;;;;;;;;;;6276120;22;20008;-89
2023/08/29 08:34:27;;;;;;;2.85;1.75;;;;;;;;;;6277626;22;20032;-89
2023/08/29 08:36:53;;;;;;;2.53;1.52;;;;;;;;;;6276029;22;20034;-90
2023/08/29 08:39:19;;;;;;;2.95;1.75;;;;;;;;;;6276121;22;20008;-89
2023/08/29 08:41:45;;;;;;;2.72;1.58;;;;;;;;;;6276067;22;20004;-90
2023/08/29 08:44:12;;;;;;;2.03;1.65;;;;;;;;;;6276110;22;20345;-90
2023/08/29 08:46:39;;;;;;;1.98;1.77;;;;;;;;;;6275859;22;20011;-89
2023/08/29 08:49:05;;;;;;;2.88;1.85;;;;;;;;;;6276827;22;20413;-91
2023/08/29 08:51:31;;;;;;;3.33;1.95;;;;;;;;;;6277239;22;20065;-91
2023/08/29 08:53:58;;;;;;;3.13;1.90;;;;;;;;;;6276390;22;20495;-91
2023/08/29 08:56:24;;;;;;;1.55;1.40;;;;;;;;;;6277670;22;20039;-90
2023/08/29 08:58:55;;;;;;;2.92;1.95;;;;;;;;;;6278549;22;20312;-90
2023/08/29 09:01:21;;;;;;;1.73;1.40;;;;;;;;;;6277987;22;20004;-91
2023/08/29 09:03:47;;;;;;;2.08;1.70;;;;;;;;;;6276346;22;20095;-90
2023/08/29 09:06:15;;;;;;;3.75;2.00;;;;;;;;;;6276305;22;20476;-89
2023/08/29 09:08:41;;;;;;;2.05;1.63;;;;;;;;;;6276266;22;20025;-90
2023/08/29 09:11:07;;;;;;;1.70;1.60;;;;;;;;;;6275966;22;20129;-91
2023/08/29 09:13:33;;;;;;;1.75;1.65;;;;;;;;;;6276116;22;20061;-91
2023/08/29 09:16:02;;;;;;;2.67;1.45;;;;;;;;;;6276381;22;20040;-90
2023/08/29 09:18:31;;;;;;;2.25;1.63;;;;;;;;;;6277596;22;20441;-90
2023/08/29 09:21:00;;;;;;;10.20;1.92;;;;;;;;;;6276190;22;20007;-92
2023/08/29 09:23:28;;;;;;;2.67;1.52;;;;;;;;;;6277351;22;20008;-92
2023/08/29 09:25:54;;;;;;;2.58;1.80;;;;;;;;;;6276502;22;20004;-93
2023/08/29 09:28:21;;;;;;;2.05;1.77;;;;;;;;;;6276135;22;20007;-91
2023/08/29 09:30:47;;;;;;;1.40;1.30;;;;;;;;;;6275897;22;20007;-92
2023/08/29 09:33:13;;;;;;;2.20;1.40;;;;;;;;;;6275954;22;20007;-92
2023/08/29 09:35:39;;;;;;;2.25;1.70;;;;;;;;;;6276438;22;20003;-91
2023/08/29 09:38:05;;;;;;;3.08;1.50;;;;;;;;;;6275800;22;20099;-94
2023/08/29 09:40:31;;;;;;;1.88;1.50;;;;;;;;;;6276234;22;20008;-94
2023/08/29 09:43:01;;;;;;;4.70;1.33;;;;;;;;;;6276036;22;20008;-94
2023/08/29 09:45:31;;;;;;;3.05;1.70;;;;;;;;;;6277834;22;20030;-93
2023/08/29 09:48:07;;;;;;;4.03;1.50;;;;;;;;;;6276354;22;20110;-93
2023/08/29 09:50:33;;;;;;;2.35;1.15;;;;;;;;;;6277004;22;20495;-93
2023/08/29 09:53:00;;;;;;;1.50;1.25;;;;;;;;;;6277009;22;20008;-94
2023/08/29 09:55:26;;;;;;;4.22;1.33;;;;;;;;;;6278104;22;20011;-92
2023/08/29 09:57:53;;;;;;;2.25;1.52;;;;;;;;;;6277957;22;20487;-94
2023/08/29 10:00:23;;;;;;;2.90;1.30;;;;;;;;;;6277704;22;20333;-93
2023/08/29 10:02:51;;;;;;;1.30;1.20;;;;;;;;;;6277840;22;19999;-94
2023/08/29 10:05:20;;;;;;;1.67;1.48;;;;;;;;;;6278102;22;20057;-90
2023/08/29 10:07:47;;;;;;;2.85;1.20;;;;;;;;;;6278101;22;20310;-94
2023/08/29 10:10:13;;;;;;;1.10;1.00;;;;;;;;;;6277404;22;20462;-93
2023/08/29 10:12:39;;;;;;;2.67;1.30;;;;;;;;;;6277502;22;20086;-92
2023/08/29 10:15:06;;;;;;;1.63;1.27;;;;;;;;;;6277525;22;20388;-90
2023/08/29 10:17:35;;;;;;;2.85;1.48;;;;;;;;;;6278137;22;20060;-93
2023/08/29 10:20:09;;;;;;;1.20;1.10;;;;;;;;;;6279699;22;20035;-92
2023/08/29 10:22:35;;;;;;;2.95;1.35;;;;;;;;;;6277941;22;20083;-93
2023/08/29 10:25:03;;;;;;;1.25;1.15;;;;;;;;;;6277292;22;20007;-90
2023/08/29 10:27:29;;;;;;;2.35;1.40;;;;;;;;;;6277843;22;20010;-91
2023/08/29 10:29:55;;;;;;;4.88;1.50;;;;;;;;;;6277332;22;20007;-92
2023/08/29 10:32:21;;;;;;;2.95;1.45;;;;;;;;;;6277409;22;20008;-92
2023/08/29 10:34:49;;;;;;;6.50;1.40;;;;;;;;;;6277275;22;20011;-92
2023/08/29 10:37:19;;;;;;;1.90;1.50;;;;;;;;;;6277808;22;20004;-92
2023/08/29 10:39:45;;;;;;;2.28;1.25;;;;;;;;;;6277513;22;20007;-92
2023/08/29 10:42:13;;;;;;;3.00;1.42;;;;;;;;;;6277196;22;20000;-93
2023/08/29 10:44:40;;;;;;;4.28;1.40;;;;;;;;;;6278987;22;20014;-94
2023/08/29 10:47:27;;;;;;;3.03;1.55;;;;;;;;;;6278849;22;20004;-93
2023/08/29 10:49:56;;;;;;;1.40;1.30;;;;;;;;;;6277116;22;20456;-93
2023/08/29 10:52:22;;;;;;;1.80;1.17;;;;;;;;;;6277119;22;20425;-93
2023/08/29 10:55:01;;;;;;;1.70;1.50;;;;;;;;;;6276999;22;20030;-94
2023/08/29 10:57:28;;;;;;;2.17;1.10;;;;;;;;;;6277382;22;20448;-92
2023/08/29 10:59:55;;;;;;;1.50;1.27;;;;;;;;;;6277187;22;20004;-91
2023/08/29 11:02:21;;;;;;;2.55;1.30;;;;;;;;;;6276955;22;19996;-92
2023/08/29 11:04:47;;;;;;;4.13;1.50;;;;;;;;;;6276915;22;20053;-91
2023/08/29 11:07:26;;;;;;;2.63;1.50;;;;;;;;;;6277148;22;20038;-92
2023/08/29 11:10:24;;;;;;;1.55;1.40;;;;;;;;;;6278569;22;20080;-94
2023/08/29 11:13:12;;;;;;;1.55;1.17;;;;;;;;;;6160178;23;20009;-92
2023/08/29 11:15:50;;;;;;;2.38;1.50;;;;;;;;;;6185417;23;20430;-92
2023/08/29 11:18:34;;;;;;;2.25;1.48;;;;;;;;;;6185428;23;20012;-92
2023/08/29 11:21:04;;;;;;;4.25;1.48;;;;;;;;;;6185086;23;20005;-92
2023/08/29 11:23:33;;;;;;;2.28;1.48;;;;;;;;;;6184876;23;20447;-92
2023/08/29 11:26:00;;;;;;;2.97;1.27;;;;;;;;;;6185405;23;20013;-92
2023/08/29 11:28:26;;;;;;;2.97;1.20;;;;;;;;;;6185530;23;20001;-91
2023/08/29 11:30:52;;;;;;;1.38;1.27;;;;;;;;;;6184899;23;20462;-91
2023/08/29 11:33:19;;;;;;;1.52;1.10;;;;;;;;;;6184873;23;20097;-94
2023/08/29 11:35:46;;;;;;;2.53;1.23;;;;;;;;;;6185937;23;20402;-94
2023/08/29 11:38:13;;;;;;;1.48;1.38;;;;;;;;;;6185172;23;20001;-93
2023/08/29 11:40:39;;;;;;;1.75;1.20;;;;;;;;;;6185028;23;20009;-93
2023/08/29 11:43:05;;;;;;;2.35;1.30;;;;;;;;;;6184934;23;20007;-93
2023/08/29 11:45:52;;;;;;;1.52;1.17;;;;;;;;;;6185036;23;20005;-92
2023/08/29 11:48:29;;;;;;;1.88;1.30;;;;;;;;;;6235879;22;20456;-93
2023/08/29 11:50:57;;;;;;;1.77;1.30;;;;;;;;;;6276823;22;20000;-92
2023/08/29 11:53:28;;;;;;;3.40;1.60;;;;;;;;;;6276761;22;20306;-92
2023/08/29 11:55:54;;;;;;;1.20;1.13;;;;;;;;;;6276921;22;20019;-92
2023/08/29 11:58:23;;;;;;;2.40;1.48;;;;;;;;;;6276824;22;20007;-92
2023/08/29 12:00:50;;;;;;;3.73;1.63;;;;;;;;;;6276957;22;20097;-92
2023/08/29 12:03:21;;;;;;;4.80;2.00;;;;;;;;;;6278314;22;20325;-92
2023/08/29 12:05:49;;;;;;;3.67;1.95;;;;;;;;;;6253272;22;20099;-92
2023/08/29 12:08:42;;;;;;;1.65;1.38;;;;;;;;;;6279340;22;20000;-92
2023/08/29 12:11:13;;;;;;;1.92;1.73;;;;;;;;;;6185181;23;20055;-94
2023/08/29 12:13:45;;;;;;;1.95;1.17;;;;;;;;;;6185145;23;20367;-91
2023/08/29 12:16:20;;;;;;;5.28;1.67;;;;;;;;;;6184067;23;20072;-92
2023/08/29 12:19:13;;;;;;;2.13;1.40;;;;;;;;;;6184933;23;20064;-94
2023/08/29 12:21:52;;;;;;;1.65;1.52;;;;;;;;;;6183216;23;20028;-94
2023/08/29 12:24:20;;;;;;;1.58;1.48;;;;;;;;;;6184749;23;20521;-93
2023/08/29 12:26:50;;;;;;;6.40;1.70;;;;;;;;;;6184777;23;20005;-93
2023/08/29 12:29:19;;;;;;;2.53;1.70;;;;;;;;;;6182817;23;20001;-91
2023/08/29 12:31:46;;;;;;;1.63;1.50;;;;;;;;;;6184805;23;20001;-94
2023/08/29 12:34:13;;;;;;;1.83;1.42;;;;;;;;;;6160426;23;20060;-93
2023/08/29 12:36:40;;;;;;;1.70;1.60;;;;;;;;;;6160023;23;20043;-93
2023/08/29 12:39:08;;;;;;;1.48;1.38;;;;;;;;;;6185264;23;20001;-92
2023/08/29 12:41:35;;;;;;;1.50;1.25;;;;;;;;;;6187042;23;20439;-94
2023/08/29 12:44:03;;;;;;;1.92;1.33;;;;;;;;;;6191477;23;20035;-94
2023/08/29 12:46:30;;;;;;;5.22;1.50;;;;;;;;;;6188552;23;20001;-93
2023/08/29 12:48:58;;;;;;;3.83;1.63;;;;;;;;;;6268574;22;20099;-95
2023/08/29 12:51:31;;;;;;;1.52;1.35;;;;;;;;;;6284186;22;20000;-95
2023/08/29 12:54:00;;;;;;;1.17;1.08;;;;;;;;;;6284663;22;20015;-90
2023/08/29 12:56:26;;;;;;;1.42;1.17;;;;;;;;;;6284850;22;19996;-91
2023/08/29 12:58:53;;;;;;;2.15;1.40;;;;;;;;;;6285987;22;20333;-93
2023/08/29 13:01:19;;;;;;;2.08;1.25;;;;;;;;;;6288245;22;20004;-95
2023/08/29 13:03:46;;;;;;;1.50;1.40;;;;;;;;;;6285595;22;20003;-93
2023/08/29 13:06:13;;;;;;;1.80;1.17;;;;;;;;;;6290085;22;20007;-92
2023/08/29 13:08:39;;;;;;;2.63;1.50;;;;;;;;;;6286244;22;20004;-89
2023/08/29 13:11:05;;;;;;;1.25;1.15;;;;;;;;;;6282958;22;20042;-94
2023/08/29 13:13:37;;;;;;;1.42;1.33;;;;;;;;;;6282703;22;20008;-94
2023/08/29 13:16:04;;;;;;;2.35;1.40;;;;;;;;;;6283840;22;19996;-95
2023/08/29 13:18:30;;;;;;;1.13;1.05;;;;;;;;;;6282494;22;20425;-93
2023/08/29 13:20:56;;;;;;;2.88;1.38;;;;;;;;;;6277175;22;20000;-93
2023/08/29 13:23:22;;;;;;;4.93;1.58;;;;;;;;;;6276352;22;20031;-92
2023/08/29 13:25:49;;;;;;;1.77;1.35;;;;;;;;;;6276457;22;20011;-93
2023/08/29 13:28:17;;;;;;;1.88;1.60;;;;;;;;;;6277999;22;20313;-93
2023/08/29 13:30:44;;;;;;;1.77;1.58;;;;;;;;;;6277414;22;20015;-93
2023/08/29 13:33:11;;;;;;;2.35;1.30;;;;;;;;;;6278296;22;20028;-94
2023/08/29 13:35:42;;;;;;;1.85;1.30;;;;;;;;;;6278165;22;20443;-94
2023/08/29 13:38:09;;;;;;;3.88;1.42;;;;;;;;;;6278033;22;20030;-95
2023/08/29 13:40:41;;;;;;;2.53;1.60;;;;;;;;;;6279455;22;20070;-92
2023/08/29 13:43:08;;;;;;;3.03;1.40;;;;;;;;;;6278762;22;20030;-93
2023/08/29 13:45:35;;;;;;;1.48;1.33;;;;;;;;;;6278464;22;20007;-94
2023/08/29 13:48:03;;;;;;;4.22;1.73;;;;;;;;;;6279890;22;20004;-92
2023/08/29 13:50:31;;;;;;;2.28;1.90;;;;;;;;;;6280604;22;20007;-93
2023/08/29 13:52:58;;;;;;;2.08;1.40;;;;;;;;;;6278302;22;20039;-94
2023/08/29 13:55:24;;;;;;;2.95;1.48;;;;;;;;;;6278299;22;20004;-93
2023/08/29 13:57:50;;;;;;;2.45;1.42;;;;;;;;;;6277981;22;20000;-93
2023/08/29 14:00:17;;;;;;;1.83;1.50;;;;;;;;;;6277920;22;20053;-93
2023/08/29 14:02:53;;;;;;;2.60;1.50;;;;;;;;;;6279626;22;20007;-93
2023/08/29 14:05:22;;;;;;;7.10;1.65;;;;;;;;;;6254552;22;20022;-92
2023/08/29 14:07:48;;;;;;;2.30;1.50;;;;;;;;;;6277695;22;19996;-93
2023/08/29 14:10:14;;;;;;;7.72;1.75;;;;;;;;;;6277821;22;20421;-92
2023/08/29 14:12:40;;;;;;;1.95;1.58;;;;;;;;;;6278579;22;20004;-93
2023/08/29 14:15:06;;;;;;;2.72;1.48;;;;;;;;;;6278025;22;20000;-91
2023/08/29 14:17:32;;;;;;;2.78;1.70;;;;;;;;;;6279036;22;20003;-91
2023/08/29 14:20:04;;;;;;;2.25;1.65;;;;;;;;;;6276982;22;20337;-88
2023/08/29 14:22:30;;;;;;;3.92;1.90;;;;;;;;;;6277456;22;20004;-89
2023/08/29 14:24:56;;;;;;;3.22;1.60;;;;;;;;;;6277332;22;20099;-90
2023/08/29 14:27:22;;;;;;;3.30;1.90;;;;;;;;;;6277487;22;20429;-90
2023/08/29 14:29:48;;;;;;;2.53;2.15;;;;;;;;;;6277741;22;20004;-90
2023/08/29 14:32:14;;;;;;;4.68;2.47;;;;;;;;;;6252053;22;20008;-90
2023/08/29 14:34:40;;;;;;;3.17;2.40;;;;;;;;;;6277644;22;20318;-90
2023/08/29 14:37:06;;;;;;;1.90;1.52;;;;;;;;;;6277494;22;20049;-90
2023/08/29 14:39:33;;;;;;;2.58;1.70;;;;;;;;;;6277183;22;20054;-91
2023/08/29 14:41:59;;;;;;;3.28;1.98;;;;;;;;;;6277492;22;20007;-91
2023/08/29 14:44:25;;;;;;;2.20;2.00;;;;;;;;;;6277524;22;20015;-90